Nearby METAR Reports

 

KPIA - Peoria, Illinois, USA
Distance from station: SSW 11mi, 18km
Updated: 12/01/2022 4:54pm
Overcast
Overcast
 Wind from SSE
Wind: SSE 15 mph , 24 km/h, Gust: 23 mph , 37 km/h
Temperature: 36°F , 2°C
Wind Chill: 27°F , -3°C
Dew Point: 21°F , -6°C
Humidity: 56%
Barometer: 30.28 inHg , 1025.4 hPa
Clouds: Overcast
Visibility: 10 miles , 16 km
Cloud details: Overcast 7000 ft
2022/12/01 22:54 KPIA 012254Z 16013G20KT 10SM OVC070 02/M06 A3028 RMK AO2 SLP262 T00171061
KC75 - Lacon, Illinois, USA
Distance from station: NE 18mi, 30km
Updated: 12/01/2022 5:40pm
Partly cloudy
Partly cloudy
 Wind from SSE
Wind: SSE 13 mph , 20 km/h, Gust: 20 mph , 31 km/h
Temperature: 32°F , 0°C
Wind Chill: 22°F , -6°C
Dew Point: 23°F , -5°C
Humidity: 69%
Barometer: 30.25 inHg , 1024.4 hPa
Clouds: Partly cloudy
Visibility: 10 miles , 16 km
Cloud details: Partly cloudy 7500 ft
2022/12/01 23:40 KC75 012340Z AUTO 16011G17KT 10SM SCT075 00/M05 A3025 RMK AO2 T00021046
 
KGBG - Galesburg, Illinois, USA
Distance from station: W 43mi, 69km
Updated: 12/01/2022 5:35pm
Overcast
Overcast
 Wind from SSE
Wind: SSE 10 mph , 17 km/h, Gust: 18 mph , 30 km/h
Temperature: 34°F , 1°C
Wind Chill: 26°F , -3°C
Dew Point: 25°F , -4°C
Humidity: 70%
Barometer: 30.20 inHg , 1022.7 hPa
Clouds: Overcast
Visibility: 10 miles , 16 km
Cloud details: Overcast 7500 ft
2022/12/01 23:35 KGBG 012335Z AUTO 15009G16KT 10SM OVC075 01/M04 A3020 RMK AO2 T00101040
KBMI - Bloomington/Norm, Illinois, USA
Distance from station: ESE 44mi, 71km
Updated: 12/01/2022 4:56pm
Clear
Clear
 Wind from SSE
Wind: SSE 16 mph , 26 km/h
Temperature: 30°F , -1°C
Wind Chill: 19°F , -7°C
Dew Point: 21°F , -6°C
Humidity: 69%
Barometer: 30.31 inHg , 1026.4 hPa
Clouds: Clear
Visibility: 10 miles , 16 km
2022/12/01 22:56 KBMI 012256Z 16014KT 10SM CLR M01/M06 A3031 RMK AO2 SLP275 T10111056
 
KVYS - Peru, Illinois, USA
Distance from station: NNE 44mi, 71km
Updated: 12/01/2022 5:35pm
Mostly cloudy
Mostly cloudy
 Wind from SSE
Wind: SSE 18 mph , 30 km/h, Gust: 22 mph , 35 km/h
Temperature: 34°F , 1°C
Wind Chill: 23°F , -5°C
Dew Point: 23°F , -5°C
Humidity: 65%
Barometer: 30.26 inHg , 1024.7 hPa
Clouds: Mostly cloudy
Visibility: 10 miles , 16 km
Cloud details: Mostly cloudy 7500 ft
2022/12/01 23:35 KVYS 012335Z AUTO 15016G19KT 10SM BKN075 01/M05 A3026 RMK AO2 T00051055
KAAA - Lincoln, Illinois, USA
Distance from station: SSE 48mi, 77km
Updated: 12/01/2022 5:35pm
Overcast
Overcast
 Wind from SSE
Wind: SSE 10 mph , 17 km/h
Temperature: 34°F , 1°C
Wind Chill: 26°F , -3°C
Dew Point: 25°F , -4°C
Humidity: 70%
Barometer: 30.29 inHg , 1025.7 hPa
Clouds: Overcast
Visibility: 10 miles , 16 km
Cloud details: Mostly cloudy 7000 ft
Overcast 9000 ft
2022/12/01 23:35 KAAA 012335Z AUTO 16009KT 10SM BKN070 OVC090 01/M04 A3029 RMK AO2 T00051040
 
KPNT - Pontiac, Illinois, USA
Distance from station: E 53mi, 85km
Updated: 12/01/2022 5:30pm
Overcast
Overcast
 Wind from SSE
Wind: SSE 13 mph , 20 km/h, Gust: 18 mph , 30 km/h
Temperature: 32°F , 0°C
Wind Chill: 22°F , -6°C
Dew Point: 25°F , -4°C
Humidity: 75%
Barometer: 30.30 inHg , 1026.1 hPa
Clouds: Overcast
Visibility: 10 miles , 16 km
Cloud details: Mostly cloudy 7000 ft
Overcast 9000 ft
2022/12/01 23:30 KPNT 012330Z AUTO 15011G16KT 10SM BKN070 OVC090 00/M04 A3030 RMK AO2 T00001041
KMQB - Macomb Muni, Illinois, USA
Distance from station: WSW 58mi, 93km
Updated: 12/01/2022 5:35pm
Overcast
Overcast
 Wind from SSE
Wind: SSE 14 mph , 22 km/h
Temperature: 34°F , 1°C
Wind Chill: 25°F , -4°C
Dew Point: 21°F , -6°C
Humidity: 60%
Barometer: 30.22 inHg , 1023.4 hPa
Clouds: Overcast
Visibility: 10 miles , 16 km
Cloud details: Overcast 7500 ft
2022/12/01 23:35 KMQB 012335Z AUTO 15012KT 10SM OVC075 01/M06 A3022 RMK AO2 T00121060
 
KMLI - Moline/Quad City, Illinois, USA
Distance from station: NW 64mi, 103km
Updated: 12/01/2022 4:52pm
Overcast
Overcast
 Wind from SE
Wind: SE 15 mph , 24 km/h, Gust: 22 mph , 35 km/h
Temperature: 37°F , 3°C
Wind Chill: 28°F , -2°C
Dew Point: 18°F , -8°C
Humidity: 45%
Barometer: 30.18 inHg , 1022 hPa
Clouds: Overcast
Visibility: 10 miles , 16 km
Cloud details: Overcast 8000 ft
2022/12/01 22:52 KMLI 012252Z 14013G19KT 10SM OVC080 03/M08 A3018 RMK AO2 SLP229 T00331078
KSQI - Sterling Rockfal, Illinois, USA
Distance from station: N 64mi, 103km
Updated: 11/29/2022 9:56pm
NOT Current
Overcast
Overcast
 Wind from W
Wind: W 23 mph , 37 km/h, Gust: 28 mph , 44 km/h
Temperature: 30°F , -1°C
Wind Chill: 17°F , -8°C
Dew Point: 27°F , -3°C
Humidity: 86%
Barometer: 29.70 inHg , 1005.8 hPa
Clouds: Overcast
Visibility: 10 miles , 16 km
Cloud details: Overcast 1800 ft
2022/11/30 03:56 KSQI 300356Z AUTO 28020G24KT 10SM OVC018 M01/M03 A2970 RMK AO2 PK WND 28030/0323 SLP925 T10061033 FZRANO
 
KSPI - Springfield, Illinois, USA
Distance from station: S 67mi, 108km
Updated: 12/01/2022 4:52pm
Partly cloudy
Partly cloudy
 Wind from SSE
Wind: SSE 13 mph , 20 km/h
Temperature: 36°F , 2°C
Wind Chill: 27°F , -3°C
Dew Point: 21°F , -6°C
Humidity: 56%
Barometer: 30.30 inHg , 1026.1 hPa
Clouds: Partly cloudy
Visibility: 10 miles , 16 km
Cloud details: Partly cloudy 10000 ft
2022/12/01 22:52 KSPI 012252Z 16011KT 10SM SCT100 02/M06 A3030 RMK AO2 SLP267 T00171061
KDVN - Davenport/Quad C, Iowa, USA
Distance from station: NW 74mi, 120km
Updated: 12/01/2022 4:52pm
Overcast
Overcast
 Wind from SSE
Wind: SSE 20 mph , 31 km/h, Gust: 28 mph , 44 km/h
Temperature: 36°F , 2°C
Wind Chill: 25°F , -4°C
Dew Point: 18°F , -8°C
Humidity: 48%
Barometer: 30.19 inHg , 1022.4 hPa
Clouds: Overcast
Visibility: 10 miles , 16 km
Cloud details: Overcast 7500 ft
2022/12/01 22:52 KDVN 012252Z AUTO 15017G24KT 10SM OVC075 02/M08 A3019 RMK AO2 SLP231 T00221083